sensor_id;sensor_type;location;lat;lon;timestamp;pressure;altitude;pressure_sealevel;temperature;humidity
5877;BME280;2964;42.144;24.730;2023-05-24T00:02:25;145262.59;;;14.85;100.00
5877;BME280;2964;42.144;24.730;2023-05-24T00:04:52;145249.97;;;14.80;100.00
5877;BME280;2964;42.144;24.730;2023-05-24T00:07:19;145290.31;;;14.96;100.00
5877;BME280;2964;42.144;24.730;2023-05-24T00:09:45;145283.97;;;14.94;100.00
5877;BME280;2964;42.144;24.730;2023-05-24T00:12:14;145272.66;;;14.89;100.00
5877;BME280;2964;42.144;24.730;2023-05-24T00:14:41;145236.13;;;14.74;100.00
5877;BME280;2964;42.144;24.730;2023-05-24T00:17:08;145275.16;;;14.90;100.00
5877;BME280;2964;42.144;24.730;2023-05-24T00:19:34;145251.22;;;14.80;100.00
5877;BME280;2964;42.144;24.730;2023-05-24T00:22:02;145195.78;;;14.58;100.00
5877;BME280;2964;42.144;24.730;2023-05-24T00:24:29;145175.56;;;14.49;100.00
5877;BME280;2964;42.144;24.730;2023-05-24T00:26:56;145154.19;;;14.41;100.00
5877;BME280;2964;42.144;24.730;2023-05-24T00:29:24;145189.47;;;14.55;100.00
5877;BME280;2964;42.144;24.730;2023-05-24T00:31:50;145208.41;;;14.63;100.00
5877;BME280;2964;42.144;24.730;2023-05-24T00:34:17;145207.09;;;14.62;100.00
5877;BME280;2964;42.144;24.730;2023-05-24T00:36:44;145174.31;;;14.49;100.00
5877;BME280;2964;42.144;24.730;2023-05-24T00:39:10;145130.19;;;14.31;100.00
5877;BME280;2964;42.144;24.730;2023-05-24T00:41:37;145179.34;;;14.51;100.00
5877;BME280;2964;42.144;24.730;2023-05-24T00:44:04;145178.09;;;14.51;100.00
5877;BME280;2964;42.144;24.730;2023-05-24T00:46:32;145145.34;;;14.37;100.00
5877;BME280;2964;42.144;24.730;2023-05-24T00:48:59;145102.50;;;14.20;100.00
5877;BME280;2964;42.144;24.730;2023-05-24T00:51:26;145092.44;;;14.16;100.00
5877;BME280;2964;42.144;24.730;2023-05-24T00:53:53;145024.41;;;13.88;100.00
5877;BME280;2964;42.144;24.730;2023-05-24T00:56:20;145094.97;;;14.17;100.00
5877;BME280;2964;42.144;24.730;2023-05-24T00:58:48;145087.41;;;14.14;100.00
5877;BME280;2964;42.144;24.730;2023-05-24T01:01:18;145015.59;;;13.84;100.00
5877;BME280;2964;42.144;24.730;2023-05-24T01:03:46;145039.50;;;13.94;100.00
5877;BME280;2964;42.144;24.730;2023-05-24T01:06:13;145000.50;;;13.78;100.00
5877;BME280;2964;42.144;24.730;2023-05-24T01:08:51;145021.94;;;13.87;100.00
5877;BME280;2964;42.144;24.730;2023-05-24T01:11:25;144992.94;;;13.75;100.00
5877;BME280;2964;42.144;24.730;2023-05-24T01:13:59;145019.38;;;13.86;100.00
5877;BME280;2964;42.144;24.730;2023-05-24T01:16:35;145003.00;;;13.79;100.00
5877;BME280;2964;42.144;24.730;2023-05-24T01:25:02;145020.63;;;13.86;100.00
5877;BME280;2964;42.144;24.730;2023-05-24T01:27:31;145010.56;;;13.82;100.00
5877;BME280;2964;42.144;24.730;2023-05-24T01:29:59;145020.63;;;13.86;100.00
5877;BME280;2964;42.144;24.730;2023-05-24T01:32:27;145025.66;;;13.88;100.00
5877;BME280;2964;42.144;24.730;2023-05-24T01:34:54;145021.94;;;13.87;100.00
5877;BME280;2964;42.144;24.730;2023-05-24T01:37:20;145000.50;;;13.78;100.00
5877;BME280;2964;42.144;24.730;2023-05-24T01:39:48;145018.13;;;13.85;100.00
5877;BME280;2964;42.144;24.730;2023-05-24T01:42:23;145015.59;;;13.84;100.00
5877;BME280;2964;42.144;24.730;2023-05-24T01:44:57;145020.63;;;13.86;100.00
5877;BME280;2964;42.144;24.730;2023-05-24T01:47:35;144955.19;;;13.60;100.00
5877;BME280;2964;42.144;24.730;2023-05-24T01:50:14;144919.91;;;13.45;100.00
5877;BME280;2964;42.144;24.730;2023-05-24T01:52:43;145001.75;;;13.79;100.00
5877;BME280;2964;42.144;24.730;2023-05-24T01:55:13;145001.75;;;13.79;100.00
5877;BME280;2964;42.144;24.730;2023-05-24T01:57:43;144929.97;;;13.49;100.00
5877;BME280;2964;42.144;24.730;2023-05-24T02:00:14;144989.16;;;13.74;100.00
5877;BME280;2964;42.144;24.730;2023-05-24T02:02:41;144985.38;;;13.72;100.00
5877;BME280;2964;42.144;24.730;2023-05-24T02:05:08;144979.09;;;13.69;100.00
5877;BME280;2964;42.144;24.730;2023-05-24T02:07:35;144984.13;;;13.71;100.00
5877;BME280;2964;42.144;24.730;2023-05-24T02:10:03;145011.81;;;13.83;100.00
5877;BME280;2964;42.144;24.730;2023-05-24T02:12:30;144989.16;;;13.74;100.00
5877;BME280;2964;42.144;24.730;2023-05-24T02:14:56;144974.06;;;13.67;100.00
5877;BME280;2964;42.144;24.730;2023-05-24T02:17:25;144970.25;;;13.66;100.00
5877;BME280;2964;42.144;24.730;2023-05-24T02:19:52;144952.63;;;13.59;100.00
5877;BME280;2964;42.144;24.730;2023-05-24T02:22:19;144948.84;;;13.57;100.00
5877;BME280;2964;42.144;24.730;2023-05-24T02:24:46;144953.88;;;13.59;100.00
5877;BME280;2964;42.144;24.730;2023-05-24T02:27:13;144992.94;;;13.75;100.00
5877;BME280;2964;42.144;24.730;2023-05-24T02:29:40;144971.50;;;13.66;100.00
5877;BME280;2964;42.144;24.730;2023-05-24T02:32:07;144966.47;;;13.64;100.00
5877;BME280;2964;42.144;24.730;2023-05-24T02:34:35;144967.78;;;13.65;100.00
5877;BME280;2964;42.144;24.730;2023-05-24T02:37:02;144971.50;;;13.66;100.00
5877;BME280;2964;42.144;24.730;2023-05-24T02:39:29;144923.69;;;13.47;100.00
5877;BME280;2964;42.144;24.730;2023-05-24T02:41:55;144880.81;;;13.29;100.00
5877;BME280;2964;42.144;24.730;2023-05-24T02:44:22;144914.88;;;13.43;100.00
5877;BME280;2964;42.144;24.730;2023-05-24T02:46:49;144921.16;;;13.46;100.00
5877;BME280;2964;42.144;24.730;2023-05-24T02:49:15;144953.88;;;13.59;100.00
5877;BME280;2964;42.144;24.730;2023-05-24T02:51:43;144952.63;;;13.59;100.00
5877;BME280;2964;42.144;24.730;2023-05-24T02:54:10;144962.69;;;13.63;100.00
5877;BME280;2964;42.144;24.730;2023-05-24T02:56:36;144906.06;;;13.40;100.00
5877;BME280;2964;42.144;24.730;2023-05-24T02:59:03;145053.38;;;14.00;100.00
5877;BME280;2964;42.144;24.730;2023-05-24T03:01:31;145010.56;;;13.82;100.00
5877;BME280;2964;42.144;24.730;2023-05-24T03:03:59;145024.41;;;13.88;100.00
5877;BME280;2964;42.144;24.730;2023-05-24T03:06:26;145010.56;;;13.82;100.00
5877;BME280;2964;42.144;24.730;2023-05-24T03:08:54;144965.25;;;13.64;100.00
5877;BME280;2964;42.144;24.730;2023-05-24T03:11:21;144966.47;;;13.64;100.00
5877;BME280;2964;42.144;24.730;2023-05-24T03:13:48;144974.06;;;13.67;100.00
5877;BME280;2964;42.144;24.730;2023-05-24T03:16:15;144967.78;;;13.65;100.00
5877;BME280;2964;42.144;24.730;2023-05-24T03:18:42;144956.41;;;13.60;100.00
5877;BME280;2964;42.144;24.730;2023-05-24T03:21:08;144966.47;;;13.64;100.00
5877;BME280;2964;42.144;24.730;2023-05-24T03:23:35;144956.41;;;13.60;100.00
5877;BME280;2964;42.144;24.730;2023-05-24T03:26:03;144964.00;;;13.63;100.00
5877;BME280;2964;42.144;24.730;2023-05-24T03:28:30;144948.84;;;13.57;100.00
5877;BME280;2964;42.144;24.730;2023-05-24T03:30:58;144969.03;;;13.65;100.00
5877;BME280;2964;42.144;24.730;2023-05-24T03:33:25;144991.69;;;13.75;100.00
5877;BME280;2964;42.144;24.730;2023-05-24T03:35:51;145006.78;;;13.81;100.00
5877;BME280;2964;42.144;24.730;2023-05-24T03:38:18;145014.34;;;13.84;100.00
5877;BME280;2964;42.144;24.730;2023-05-24T03:40:45;144981.63;;;13.70;100.00
5877;BME280;2964;42.144;24.730;2023-05-24T03:43:13;145044.59;;;13.96;100.00
5877;BME280;2964;42.144;24.730;2023-05-24T03:45:40;145059.69;;;14.02;100.00
5877;BME280;2964;42.144;24.730;2023-05-24T03:48:06;145052.13;;;13.99;100.00
5877;BME280;2964;42.144;24.730;2023-05-24T03:50:33;145092.44;;;14.16;100.00
5877;BME280;2964;42.144;24.730;2023-05-24T03:53:00;145116.34;;;14.25;100.00
5877;BME280;2964;42.144;24.730;2023-05-24T03:55:26;145115.09;;;14.25;100.00
5877;BME280;2964;42.144;24.730;2023-05-24T03:57:53;145155.41;;;14.41;100.00
5877;BME280;2964;42.144;24.730;2023-05-24T04:00:21;145180.63;;;14.52;100.00
5877;BME280;2964;42.144;24.730;2023-05-24T04:02:48;145241.16;;;14.76;100.00
5877;BME280;2964;42.144;24.730;2023-05-24T04:05:14;145255.00;;;14.82;100.00
5877;BME280;2964;42.144;24.730;2023-05-24T04:07:41;145263.84;;;14.85;100.00
5877;BME280;2964;42.144;24.730;2023-05-24T04:10:10;145289.06;;;14.96;100.00
5877;BME280;2964;42.144;24.730;2023-05-24T04:12:37;145319.28;;;15.08;100.00
5877;BME280;2964;42.144;24.730;2023-05-24T04:15:04;145362.16;;;15.25;100.00
5877;BME280;2964;42.144;24.730;2023-05-24T04:17:33;145394.94;;;15.39;100.00
5877;BME280;2964;42.144;24.730;2023-05-24T04:19:59;145447.91;;;15.60;100.00
5877;BME280;2964;42.144;24.730;2023-05-24T04:22:26;145628.28;;;16.34;100.00
5877;BME280;2964;42.144;24.730;2023-05-24T04:24:53;146002.09;;;17.86;94.86
5877;BME280;2964;42.144;24.730;2023-05-24T04:27:19;146281.38;;;18.99;89.29
5877;BME280;2964;42.144;24.730;2023-05-24T04:29:46;146602.69;;;20.30;82.44
5877;BME280;2964;42.144;24.730;2023-05-24T04:32:14;146833.13;;;21.23;77.23
5877;BME280;2964;42.144;24.730;2023-05-24T04:34:44;146593.81;;;20.26;77.76
5877;BME280;2964;42.144;24.730;2023-05-24T04:37:11;146473.66;;;19.77;79.37
5877;BME280;2964;42.144;24.730;2023-05-24T04:39:41;146488.81;;;19.83;79.16
5877;BME280;2964;42.144;24.730;2023-05-24T04:42:08;146329.44;;;19.19;78.84
5877;BME280;2964;42.144;24.730;2023-05-24T04:44:35;146442.00;;;19.64;79.90
5877;BME280;2964;42.144;24.730;2023-05-24T04:47:02;146552.09;;;20.09;79.56
5877;BME280;2964;42.144;24.730;2023-05-24T04:49:29;146698.91;;;20.69;76.10
5877;BME280;2964;42.144;24.730;2023-05-24T04:51:57;147081.38;;;22.24;73.65
5877;BME280;2964;42.144;24.730;2023-05-24T04:54:24;147470.75;;;23.81;66.43
5877;BME280;2964;42.144;24.730;2023-05-24T04:56:50;147520.19;;;24.01;64.96
5877;BME280;2964;42.144;24.730;2023-05-24T04:59:17;147634.41;;;24.47;64.12
5877;BME280;2964;42.144;24.730;2023-05-24T05:01:44;147210.72;;;22.76;66.66
5877;BME280;2964;42.144;24.730;2023-05-24T05:04:10;147418.66;;;23.60;66.26
5877;BME280;2964;42.144;24.730;2023-05-24T05:06:37;147705.50;;;24.76;62.00
5877;BME280;2964;42.144;24.730;2023-05-24T05:09:06;148078.91;;;26.27;57.85
5877;BME280;2964;42.144;24.730;2023-05-24T05:11:35;148089.06;;;26.31;57.46
5877;BME280;2964;42.144;24.730;2023-05-24T05:14:01;148068.78;;;26.23;56.66
5877;BME280;2964;42.144;24.730;2023-05-24T05:16:28;148155.16;;;26.58;56.78
5877;BME280;2964;42.144;24.730;2023-05-24T05:18:56;148469.22;;;27.85;55.00
5877;BME280;2964;42.144;24.730;2023-05-24T05:21:22;148356.09;;;27.39;54.22
5877;BME280;2964;42.144;24.730;2023-05-24T05:23:49;148353.53;;;27.38;55.09
5877;BME280;2964;42.144;24.730;2023-05-24T05:26:17;148240.34;;;26.92;54.62
5877;BME280;2964;42.144;24.730;2023-05-24T05:28:44;148432.34;;;27.70;53.21
5877;BME280;2964;42.144;24.730;2023-05-24T05:31:11;148445.06;;;27.75;53.60
5877;BME280;2964;42.144;24.730;2023-05-24T05:33:37;148546.84;;;28.16;52.17
5877;BME280;2964;42.144;24.730;2023-05-24T05:36:04;148386.56;;;27.51;54.25
5877;BME280;2964;42.144;24.730;2023-05-24T05:38:31;148234.00;;;26.90;54.44
5877;BME280;2964;42.144;24.730;2023-05-24T05:40:57;148483.25;;;27.90;54.25
5877;BME280;2964;42.144;24.730;2023-05-24T05:43:25;148427.25;;;27.68;54.89
5877;BME280;2964;42.144;24.730;2023-05-24T05:45:53;148761.91;;;29.03;52.56
5877;BME280;2964;42.144;24.730;2023-05-24T05:48:20;148478.13;;;27.88;55.30
5877;BME280;2964;42.144;24.730;2023-05-24T05:50:46;148467.97;;;27.84;54.95
5877;BME280;2964;42.144;24.730;2023-05-24T05:53:14;148690.69;;;28.74;51.48
5877;BME280;2964;42.144;24.730;2023-05-24T05:55:41;148900.72;;;29.59;49.04
5877;BME280;2964;42.144;24.730;2023-05-24T05:58:08;149071.38;;;30.28;46.48
5877;BME280;2964;42.144;24.730;2023-05-24T06:00:37;148960.59;;;29.83;45.69
5877;BME280;2964;42.144;24.730;2023-05-24T06:03:04;148615.53;;;28.44;49.45
5877;BME280;2964;42.144;24.730;2023-05-24T06:05:30;148888.00;;;29.54;47.58
5877;BME280;2964;42.144;24.730;2023-05-24T06:07:57;148345.88;;;27.35;51.02
5877;BME280;2964;42.144;24.730;2023-05-24T06:10:23;148254.31;;;26.98;53.63
5877;BME280;2964;42.144;24.730;2023-05-24T06:12:50;148161.56;;;26.61;53.10
5877;BME280;2964;42.144;24.730;2023-05-24T06:15:17;147959.47;;;25.79;56.12
5877;BME280;2964;42.144;24.730;2023-05-24T06:17:48;148045.91;;;26.14;54.55
5877;BME280;2964;42.144;24.730;2023-05-24T06:20:16;148120.84;;;26.44;54.65
5877;BME280;2964;42.144;24.730;2023-05-24T06:22:42;148208.56;;;26.80;52.98
5877;BME280;2964;42.144;24.730;2023-05-24T06:25:09;148295.00;;;27.14;52.40
5877;BME280;2964;42.144;24.730;2023-05-24T06:27:39;148387.88;;;27.52;51.51
5877;BME280;2964;42.144;24.730;2023-05-24T06:30:07;148630.81;;;28.50;50.67
5877;BME280;2964;42.144;24.730;2023-05-24T06:32:33;148773.38;;;29.07;48.48
5877;BME280;2964;42.144;24.730;2023-05-24T06:35:02;148814.16;;;29.24;48.68
5877;BME280;2964;42.144;24.730;2023-05-24T06:37:28;148760.66;;;29.02;47.30
5877;BME280;2964;42.144;24.730;2023-05-24T06:39:55;148722.50;;;28.87;50.98
5877;BME280;2964;42.144;24.730;2023-05-24T06:42:22;149168.22;;;30.67;46.92
5877;BME280;2964;42.144;24.730;2023-05-24T06:44:48;149135.13;;;30.53;44.36
5877;BME280;2964;42.144;24.730;2023-05-24T06:47:15;149282.94;;;31.13;43.83
5877;BME280;2964;42.144;24.730;2023-05-24T06:49:42;149151.69;;;30.60;44.41
5877;BME280;2964;42.144;24.730;2023-05-24T06:52:10;149326.28;;;31.30;43.37
5877;BME280;2964;42.144;24.730;2023-05-24T06:54:38;149484.38;;;31.94;42.93
5877;BME280;2964;42.144;24.730;2023-05-24T06:57:04;148893.06;;;29.56;44.96
5877;BME280;2964;42.144;24.730;2023-05-24T06:59:31;149293.13;;;31.17;44.06
5877;BME280;2964;42.144;24.730;2023-05-24T07:01:58;149020.44;;;30.07;45.20
5877;BME280;2964;42.144;24.730;2023-05-24T07:04:25;149400.25;;;31.60;44.35
5877;BME280;2964;42.144;24.730;2023-05-24T07:06:52;149021.72;;;30.08;46.26
5877;BME280;2964;42.144;24.730;2023-05-24T07:09:20;149522.69;;;32.09;43.16
5877;BME280;2964;42.144;24.730;2023-05-24T07:11:47;150292.41;;;35.19;36.70
5877;BME280;2964;42.144;24.730;2023-05-24T07:14:14;150229.81;;;34.94;33.77
5877;BME280;2964;42.144;24.730;2023-05-24T07:16:40;149990.97;;;33.98;36.55
5877;BME280;2964;42.144;24.730;2023-05-24T07:19:07;149745.88;;;32.99;37.82
5877;BME280;2964;42.144;24.730;2023-05-24T07:21:34;149600.47;;;32.41;38.47
5877;BME280;2964;42.144;24.730;2023-05-24T07:24:01;150280.88;;;35.14;35.83
5877;BME280;2964;42.144;24.730;2023-05-24T07:26:30;149879.88;;;33.53;36.30
5877;BME280;2964;42.144;24.730;2023-05-24T07:28:57;149588.97;;;32.36;38.89
5877;BME280;2964;42.144;24.730;2023-05-24T07:31:24;149597.91;;;32.40;39.12
5877;BME280;2964;42.144;24.730;2023-05-24T07:33:51;149985.88;;;33.96;36.74
5877;BME280;2964;42.144;24.730;2023-05-24T07:36:18;149094.34;;;30.37;41.11
5877;BME280;2964;42.144;24.730;2023-05-24T07:38:45;149089.28;;;30.35;42.25
5877;BME280;2964;42.144;24.730;2023-05-24T07:41:13;149585.13;;;32.35;37.69
5877;BME280;2964;42.144;24.730;2023-05-24T07:43:41;149002.63;;;30.00;41.03
5877;BME280;2964;42.144;24.730;2023-05-24T07:46:07;149721.66;;;32.89;38.03
5877;BME280;2964;42.144;24.730;2023-05-24T07:48:34;150105.91;;;34.44;35.71
5877;BME280;2964;42.144;24.730;2023-05-24T07:51:01;149945.03;;;33.79;36.26
5877;BME280;2964;42.144;24.730;2023-05-24T07:53:28;150114.84;;;34.48;34.70
5877;BME280;2964;42.144;24.730;2023-05-24T07:55:54;150095.72;;;34.40;35.22
5877;BME280;2964;42.144;24.730;2023-05-24T07:58:21;150103.34;;;34.43;35.03
5877;BME280;2964;42.144;24.730;2023-05-24T08:00:49;150273.19;;;35.11;32.85
5877;BME280;2964;42.144;24.730;2023-05-24T08:03:16;149479.28;;;31.92;35.59
5877;BME280;2964;42.144;24.730;2023-05-24T08:05:43;150168.47;;;34.69;34.76
5877;BME280;2964;42.144;24.730;2023-05-24T08:08:10;150595.28;;;36.41;29.01
5877;BME280;2964;42.144;24.730;2023-05-24T08:10:36;150116.13;;;34.48;32.84
5877;BME280;2964;42.144;24.730;2023-05-24T08:13:03;150048.44;;;34.21;33.80
5877;BME280;2964;42.144;24.730;2023-05-24T08:15:30;150517.28;;;36.09;31.02
5877;BME280;2964;42.144;24.730;2023-05-24T08:17:58;150741.06;;;36.99;29.96
5877;BME280;2964;42.144;24.730;2023-05-24T08:20:25;150955.97;;;37.85;28.69
5877;BME280;2964;42.144;24.730;2023-05-24T08:22:51;151027.63;;;38.14;28.60
5877;BME280;2964;42.144;24.730;2023-05-24T08:25:18;150904.84;;;37.65;28.72
5877;BME280;2964;42.144;24.730;2023-05-24T08:27:45;150366.53;;;35.49;29.47
5877;BME280;2964;42.144;24.730;2023-05-24T08:30:12;150886.88;;;37.58;29.13
5877;BME280;2964;42.144;24.730;2023-05-24T08:32:39;151261.88;;;39.08;26.90
5877;BME280;2964;42.144;24.730;2023-05-24T08:35:08;150766.66;;;37.09;28.21
5877;BME280;2964;42.144;24.730;2023-05-24T08:37:34;151005.88;;;38.05;27.23
5877;BME280;2964;42.144;24.730;2023-05-24T08:40:01;150932.97;;;37.76;26.56
5877;BME280;2964;42.144;24.730;2023-05-24T08:42:29;151409.09;;;39.67;23.50
5877;BME280;2964;42.144;24.730;2023-05-24T08:45:02;150510.91;;;36.07;27.76
5877;BME280;2964;42.144;24.730;2023-05-24T08:47:37;150415.03;;;35.68;28.35
5877;BME280;2964;42.144;24.730;2023-05-24T08:50:09;150481.53;;;35.95;26.77
5877;BME280;2964;42.144;24.730;2023-05-24T08:52:37;151030.22;;;38.15;26.07
5877;BME280;2964;42.144;24.730;2023-05-24T08:55:06;151329.72;;;39.35;24.91
5877;BME280;2964;42.144;24.730;2023-05-24T08:57:33;151030.22;;;38.15;25.77
5877;BME280;2964;42.144;24.730;2023-05-24T09:00:04;151215.75;;;38.90;24.94
5877;BME280;2964;42.144;24.730;2023-05-24T09:02:32;150366.53;;;35.49;26.88
5877;BME280;2964;42.144;24.730;2023-05-24T09:04:59;149823.75;;;33.31;30.20
5877;BME280;2964;42.144;24.730;2023-05-24T09:07:27;150093.13;;;34.39;30.64
5877;BME280;2964;42.144;24.730;2023-05-24T09:09:57;149853.13;;;33.42;31.94
5877;BME280;2964;42.144;24.730;2023-05-24T09:12:25;150140.34;;;34.58;31.51
5877;BME280;2964;42.144;24.730;2023-05-24T09:14:53;150206.81;;;34.85;29.39
5877;BME280;2964;42.144;24.730;2023-05-24T09:17:20;150261.72;;;35.07;27.65
5877;BME280;2964;42.144;24.730;2023-05-24T09:19:49;150141.66;;;34.58;29.89
5877;BME280;2964;42.144;24.730;2023-05-24T09:22:17;151027.63;;;38.14;27.14
5877;BME280;2964;42.144;24.730;2023-05-24T09:24:49;151155.63;;;38.66;24.22
5877;BME280;2964;42.144;24.730;2023-05-24T09:27:16;151277.25;;;39.14;22.70
5877;BME280;2964;42.144;24.730;2023-05-24T09:29:43;151616.63;;;40.50;22.32
5877;BME280;2964;42.144;24.730;2023-05-24T09:32:13;151301.56;;;39.24;22.37
5877;BME280;2964;42.144;24.730;2023-05-24T09:34:40;151602.53;;;40.45;21.06
5877;BME280;2964;42.144;24.730;2023-05-24T09:37:09;151691.00;;;40.80;21.67
5877;BME280;2964;42.144;24.730;2023-05-24T09:39:39;151494.94;;;40.02;20.66
5877;BME280;2964;42.144;24.730;2023-05-24T09:42:13;151541.03;;;40.20;19.60
5877;BME280;2964;42.144;24.730;2023-05-24T09:44:40;151397.59;;;39.63;21.15
5877;BME280;2964;42.144;24.730;2023-05-24T09:47:07;151324.59;;;39.33;22.53
5877;BME280;2964;42.144;24.730;2023-05-24T09:49:35;151295.16;;;39.22;22.62
5877;BME280;2964;42.144;24.730;2023-05-24T09:52:02;151346.38;;;39.42;21.44
5877;BME280;2964;42.144;24.730;2023-05-24T09:54:31;151371.97;;;39.52;21.36
5877;BME280;2964;42.144;24.730;2023-05-24T09:56:59;151510.28;;;40.08;21.74
5877;BME280;2964;42.144;24.730;2023-05-24T09:59:32;151360.50;;;39.48;22.99
5877;BME280;2964;42.144;24.730;2023-05-24T10:02:06;151126.16;;;38.54;22.50
5877;BME280;2964;42.144;24.730;2023-05-24T10:04:35;150844.69;;;37.41;23.06
5877;BME280;2964;42.144;24.730;2023-05-24T10:07:02;150489.19;;;35.98;26.19
5877;BME280;2964;42.144;24.730;2023-05-24T10:09:30;150247.69;;;35.01;27.66
5877;BME280;2964;42.144;24.730;2023-05-24T10:12:00;149567.28;;;32.27;29.00
5877;BME280;2964;42.144;24.730;2023-05-24T10:14:32;149294.44;;;31.17;31.15
5877;BME280;2964;42.144;24.730;2023-05-24T10:17:00;149114.72;;;30.45;30.94
5877;BME280;2964;42.144;24.730;2023-05-24T10:19:28;148924.91;;;29.69;33.03
5877;BME280;2964;42.144;24.730;2023-05-24T10:21:55;148982.25;;;29.92;33.52
5877;BME280;2964;42.144;24.730;2023-05-24T10:24:25;148984.78;;;29.93;32.96
5877;BME280;2964;42.144;24.730;2023-05-24T10:26:56;148842.16;;;29.35;33.46
5877;BME280;2964;42.144;24.730;2023-05-24T10:29:32;148523.94;;;28.07;34.21
5877;BME280;2964;42.144;24.730;2023-05-24T10:32:03;148378.97;;;27.48;35.97
5877;BME280;2964;42.144;24.730;2023-05-24T10:34:30;148423.44;;;27.66;36.57
5877;BME280;2964;42.144;24.730;2023-05-24T10:36:57;148506.13;;;28.00;37.59
5877;BME280;2964;42.144;24.730;2023-05-24T10:39:24;148434.91;;;27.71;35.45
5877;BME280;2964;42.144;24.730;2023-05-24T10:41:55;148460.31;;;27.81;34.70
5877;BME280;2964;42.144;24.730;2023-05-24T10:44:27;148456.53;;;27.80;35.16
5877;BME280;2964;42.144;24.730;2023-05-24T10:47:11;148380.22;;;27.49;35.51
5877;BME280;2964;42.144;24.730;2023-05-24T10:49:46;148311.53;;;27.21;35.00
5877;BME280;2964;42.144;24.730;2023-05-24T10:52:13;148241.63;;;26.93;34.92
5877;BME280;2964;42.144;24.730;2023-05-24T10:54:40;148302.63;;;27.18;36.13
5877;BME280;2964;42.144;24.730;2023-05-24T10:57:07;148317.88;;;27.24;36.00
5877;BME280;2964;42.144;24.730;2023-05-24T10:59:35;148279.75;;;27.08;36.97
5877;BME280;2964;42.144;24.730;2023-05-24T11:02:05;148279.75;;;27.08;35.69
5877;BME280;2964;42.144;24.730;2023-05-24T11:04:37;148267.03;;;27.03;36.28
5877;BME280;2964;42.144;24.730;2023-05-24T11:07:07;148218.75;;;26.84;35.21
5877;BME280;2964;42.144;24.730;2023-05-24T11:09:35;148281.00;;;27.09;37.10
5877;BME280;2964;42.144;24.730;2023-05-24T11:12:03;148371.31;;;27.45;35.36
5877;BME280;2964;42.144;24.730;2023-05-24T11:14:35;148401.84;;;27.58;36.16
5877;BME280;2964;42.144;24.730;2023-05-24T11:17:02;148373.91;;;27.46;37.22
5877;BME280;2964;42.144;24.730;2023-05-24T11:19:31;148307.72;;;27.20;34.25
5877;BME280;2964;42.144;24.730;2023-05-24T11:22:02;148315.34;;;27.23;35.14
5877;BME280;2964;42.144;24.730;2023-05-24T11:24:29;148311.53;;;27.21;35.26
5877;BME280;2964;42.144;24.730;2023-05-24T11:26:56;148261.94;;;27.01;34.54
5877;BME280;2964;42.144;24.730;2023-05-24T11:29:23;148221.28;;;26.85;33.87
5877;BME280;2964;42.144;24.730;2023-05-24T11:31:50;148200.97;;;26.76;32.76
5877;BME280;2964;42.144;24.730;2023-05-24T11:34:18;148123.41;;;26.45;34.16
5877;BME280;2964;42.144;24.730;2023-05-24T11:36:45;148203.47;;;26.77;33.70
5877;BME280;2964;42.144;24.730;2023-05-24T11:39:14;148258.13;;;27.00;34.81
5877;BME280;2964;42.144;24.730;2023-05-24T11:41:41;148256.88;;;26.99;35.39
5877;BME280;2964;42.144;24.730;2023-05-24T11:44:09;148272.09;;;27.05;34.65
5877;BME280;2964;42.144;24.730;2023-05-24T11:46:37;148325.56;;;27.27;35.37
5877;BME280;2964;42.144;24.730;2023-05-24T11:49:04;148246.72;;;26.95;34.40
5877;BME280;2964;42.144;24.730;2023-05-24T11:51:33;148214.94;;;26.82;34.57
5877;BME280;2964;42.144;24.730;2023-05-24T11:54:00;148117.03;;;26.43;35.83
5877;BME280;2964;42.144;24.730;2023-05-24T11:56:30;148150.09;;;26.56;35.51
5877;BME280;2964;42.144;24.730;2023-05-24T11:59:05;148157.69;;;26.59;35.30
5877;BME280;2964;42.144;24.730;2023-05-24T12:01:34;148181.88;;;26.69;35.18
5877;BME280;2964;42.144;24.730;2023-05-24T12:04:00;148176.78;;;26.67;35.14
5877;BME280;2964;42.144;24.730;2023-05-24T12:06:33;148137.38;;;26.51;37.39
5877;BME280;2964;42.144;24.730;2023-05-24T12:09:00;148174.28;;;26.66;39.62
5877;BME280;2964;42.144;24.730;2023-05-24T12:11:31;148035.69;;;26.10;40.06
5877;BME280;2964;42.144;24.730;2023-05-24T12:13:58;148091.63;;;26.32;40.40
5877;BME280;2964;42.144;24.730;2023-05-24T12:16:26;148096.72;;;26.34;40.99
5877;BME280;2964;42.144;24.730;2023-05-24T12:18:56;148114.50;;;26.42;40.16
5877;BME280;2964;42.144;24.730;2023-05-24T12:21:23;148087.81;;;26.31;40.13
5877;BME280;2964;42.144;24.730;2023-05-24T12:23:50;148097.97;;;26.35;38.59
5877;BME280;2964;42.144;24.730;2023-05-24T12:26:17;148094.16;;;26.33;37.23
5877;BME280;2964;42.144;24.730;2023-05-24T12:28:47;148100.53;;;26.36;36.71
5877;BME280;2964;42.144;24.730;2023-05-24T12:31:18;148091.63;;;26.32;38.34
5877;BME280;2964;42.144;24.730;2023-05-24T12:33:44;148133.56;;;26.49;38.94
5877;BME280;2964;42.144;24.730;2023-05-24T12:36:12;148134.81;;;26.50;40.32
5877;BME280;2964;42.144;24.730;2023-05-24T12:38:39;148190.75;;;26.72;40.63
5877;BME280;2964;42.144;24.730;2023-05-24T12:41:06;148185.69;;;26.70;40.27
5877;BME280;2964;42.144;24.730;2023-05-24T12:43:33;148202.22;;;26.77;39.56
5877;BME280;2964;42.144;24.730;2023-05-24T12:46:01;148162.81;;;26.61;41.45
5877;BME280;2964;42.144;24.730;2023-05-24T12:48:28;148206.03;;;26.79;41.57
5877;BME280;2964;42.144;24.730;2023-05-24T12:50:55;148253.06;;;26.98;40.66
5877;BME280;2964;42.144;24.730;2023-05-24T12:53:21;148305.16;;;27.19;41.14
5877;BME280;2964;42.144;24.730;2023-05-24T12:55:50;148269.59;;;27.04;39.63
5877;BME280;2964;42.144;24.730;2023-05-24T12:58:20;148274.66;;;27.06;39.57
5877;BME280;2964;42.144;24.730;2023-05-24T13:00:47;148265.78;;;27.03;40.33
5877;BME280;2964;42.144;24.730;2023-05-24T13:03:16;148237.81;;;26.91;39.19
5877;BME280;2964;42.144;24.730;2023-05-24T13:05:42;148228.91;;;26.88;40.01
5877;BME280;2964;42.144;24.730;2023-05-24T13:08:10;148272.09;;;27.05;39.96